KLM691 EHAM-CYYZ
Flight info
| Callsign | KLM691 |
|---|---|
| Flight time | N/A |
| Altitude | 34000 |
| Route | IDRID L980 MANGO DCT ENHAQ DCT GAJIT DCT BAPHU DCT LESLU/M086F340 DCT RODEL DCT 51N020W 51N030W 5030N04000W 48N050W DCT NICSO/N0493F360 N268A MIILS DCT LETAK IMEBA9 |
| Aircraft | B77W/H-SDE1E2E3FGHIJ2J3J4J5M1RWXY/LB1D1 |
Departure
| Time | 2026-05-05 23:20 |
|---|---|
| Airport | Amsterdam Airport Schiphol (EHAM) |
Arrival
| Time | N/A |
|---|---|
| Airport | Toronto Pearson International Airport (CYYZ) |
| Time | Latitude | Longitude | Altitude | Speed | Heading |
|---|---|---|---|---|---|
| 2026-05-05 23:04 | 52.31353 | 4.75582 | 4 ft | 0 kts | 88° |
| 2026-05-05 23:12 | 52.31352 | 4.75548 | 4 ft | 3 kts | 85° |
| 2026-05-05 23:12 | 52.31350 | 4.75509 | 4 ft | 4 kts | 79° |
| 2026-05-05 23:13 | 52.31339 | 4.75464 | 6 ft | 5 kts | 46° |
| 2026-05-05 23:13 | 52.31323 | 4.75443 | 7 ft | 2 kts | 13° |
| 2026-05-05 23:13 | 52.31367 | 4.75446 | 5 ft | 7 kts | 357° |
| 2026-05-05 23:13 | 52.31415 | 4.75442 | 4 ft | 7 kts | 357° |
| 2026-05-05 23:14 | 52.31463 | 4.75438 | 4 ft | 7 kts | 357° |
| 2026-05-05 23:14 | 52.31510 | 4.75426 | 4 ft | 7 kts | 339° |
| 2026-05-05 23:14 | 52.31519 | 4.75354 | 3 ft | 7 kts | 264° |
| 2026-05-05 23:14 | 52.31511 | 4.75230 | 3 ft | 13 kts | 264° |
| 2026-05-05 23:15 | 52.31501 | 4.75082 | 4 ft | 13 kts | 264° |
| 2026-05-05 23:15 | 52.31492 | 4.74932 | 4 ft | 13 kts | 265° |
| 2026-05-05 23:15 | 52.31486 | 4.74780 | 4 ft | 13 kts | 268° |
| 2026-05-05 23:15 | 52.31482 | 4.74628 | 4 ft | 14 kts | 268° |
| 2026-05-05 23:16 | 52.31478 | 4.74445 | 4 ft | 18 kts | 268° |
| 2026-05-05 23:16 | 52.31464 | 4.74237 | 4 ft | 19 kts | 249° |
| 2026-05-05 23:16 | 52.31359 | 4.74136 | 4 ft | 19 kts | 185° |
| 2026-05-05 23:16 | 52.31229 | 4.74124 | 4 ft | 19 kts | 183° |
| 2026-05-05 23:17 | 52.31098 | 4.74111 | 4 ft | 19 kts | 183° |
| 2026-05-05 23:17 | 52.30969 | 4.74099 | 4 ft | 19 kts | 183° |
| 2026-05-05 23:17 | 52.30840 | 4.74087 | 4 ft | 19 kts | 183° |
| 2026-05-05 23:17 | 52.30710 | 4.74076 | 4 ft | 19 kts | 183° |
| 2026-05-05 23:18 | 52.30580 | 4.74066 | 4 ft | 19 kts | 183° |
| 2026-05-05 23:18 | 52.30450 | 4.74055 | 4 ft | 19 kts | 183° |
| 2026-05-05 23:18 | 52.30325 | 4.74019 | 4 ft | 19 kts | 201° |
| 2026-05-05 23:18 | 52.30223 | 4.73919 | 3 ft | 12 kts | 217° |
| 2026-05-05 23:19 | 52.30188 | 4.73819 | 3 ft | 10 kts | 262° |
| 2026-05-05 23:19 | 52.30214 | 4.73740 | 2 ft | 7 kts | 346° |
| 2026-05-05 23:19 | 52.30280 | 4.73746 | 1 ft | 23 kts | 2° |
| 2026-05-05 23:19 | 52.30697 | 4.73782 | 3 ft | 95 kts | 3° |
| 2026-05-05 23:20 | 52.31579 | 4.73864 | 2 ft | 156 kts | 3° |
| 2026-05-05 23:20 | 52.32758 | 4.73984 | 296 ft | 176 kts | 4° |
| 2026-05-05 23:20 | 52.33992 | 4.74063 | 802 ft | 180 kts | 353° |
| 2026-05-05 23:20 | 52.35141 | 4.73174 | 1300 ft | 193 kts | 319° |
| 2026-05-05 23:21 | 52.35891 | 4.71163 | 1514 ft | 225 kts | 290° |
| 2026-05-05 23:21 | 52.35948 | 4.68456 | 1742 ft | 255 kts | 253° |
| 2026-05-05 23:21 | 52.35238 | 4.65776 | 2349 ft | 264 kts | 245° |
| 2026-05-05 23:21 | 52.34421 | 4.63062 | 3209 ft | 268 kts | 244° |
| 2026-05-05 23:22 | 52.33585 | 4.60326 | 4154 ft | 268 kts | 245° |
| 2026-05-05 23:22 | 52.32747 | 4.57589 | 5090 ft | 268 kts | 245° |
| 2026-05-05 23:22 | 52.31921 | 4.54889 | 5999 ft | 269 kts | 245° |
| 2026-05-05 23:22 | 52.31085 | 4.52143 | 6824 ft | 271 kts | 244° |
| 2026-05-05 23:23 | 52.30240 | 4.49361 | 7626 ft | 273 kts | 244° |
| 2026-05-05 23:23 | 52.29389 | 4.46556 | 8418 ft | 277 kts | 244° |
| 2026-05-05 23:23 | 52.28531 | 4.43726 | 9210 ft | 280 kts | 244° |
| 2026-05-05 23:23 | 52.27673 | 4.40891 | 9978 ft | 283 kts | 244° |
| 2026-05-05 23:24 | 52.26782 | 4.37948 | 10474 ft | 297 kts | 244° |
| 2026-05-05 23:24 | 52.25826 | 4.34789 | 10649 ft | 322 kts | 244° |
| 2026-05-05 23:24 | 52.24797 | 4.31391 | 10845 ft | 346 kts | 244° |